KQ4KX Weather Reports


Display with metric or nautical units.
time (UTC)temp
F
wind
direction
speed
MPH
gust
MPH
rain 1hr
in
rain 24hr
in
rain mn
in
humidity
%
barometer
mb
20210622141731 78 208 2.0 8.0 0.00 0.15 0.13 58 1017.3
20210622141603 78 208 2.0 8.0 0.00 0.15 0.13 58 1017.3
20210622141420 78 208 2.0 8.0 0.00 0.15 0.13 58 1017.3
20210622140850 78 188 3.0 8.0 0.00 0.15 0.13 58 1017.2
20210622140320 78 194 3.0 8.0 0.00 0.15 0.13 57 1017.2
20210622135926 78 198 3.0 11.0 0.00 0.15 0.13 54 1017.2
20210622135750 78 198 3.0 11.0 0.00 0.15 0.13 54 1017.2
20210622135433 77 182 1.0 11.0 0.00 0.15 0.13 50 1017.2
20210622135250 77 182 1.0 11.0 0.00 0.15 0.13 50 1017.2
20210622134924 77 171 1.0 7.0 0.00 0.15 0.13 49 1017.2
20210622134720 77 171 1.0 7.0 0.00 0.15 0.13 49 1017.2
20210622134347 77 170 2.0 7.0 0.00 0.15 0.13 49 1017.1
20210622134220 77 170 2.0 7.0 0.00 0.15 0.13 49 1017.1
20210622133836 77 167 3.0 9.0 0.00 0.15 0.13 49 1017.0
20210622133650 77 167 3.0 9.0 0.00 0.15 0.13 49 1017.0
20210622133247 76 167 3.0 9.0 0.00 0.15 0.13 49 1016.9
20210622133120 76 167 3.0 9.0 0.00 0.15 0.13 49 1016.9
20210622132824 76 158 3.0 8.0 0.00 0.15 0.13 49 1016.8
20210622132620 76 158 3.0 8.0 0.00 0.15 0.13 49 1016.8
20210622132245 76 152 3.0 8.0 0.00 0.15 0.13 48 1016.7
20210622132050 76 152 3.0 8.0 0.00 0.15 0.13 48 1016.7
20210622131550 76 147 3.0 11.0 0.00 0.15 0.13 49 1016.8
20210622131241 76 150 3.0 11.0 0.00 0.15 0.13 47 1016.8
20210622131050 76 150 3.0 11.0 0.00 0.15 0.13 47 1016.8
20210622130520 76 150 3.0 9.0 0.00 0.15 0.13 44 1016.8
20210622130245 76 149 3.0 9.0 0.00 0.15 0.13 43 1016.7
20210622125950 76 149 3.0 9.0 0.00 0.15 0.13 43 1016.7
20210622125420 75 156 4.0 9.0 0.00 0.15 0.13 40 1016.8
20210622125134 75 153 5.0 11.0 0.00 0.15 0.13 41 1016.8
20210622125055 75 153 5.0 11.0 0.00 0.15 0.13 41 1016.8
20210622124920 75 153 5.0 11.0 0.00 0.15 0.13 41 1016.8
20210622124517 75 151 4.0 11.0 0.00 0.15 0.13 39 1016.9
20210622124420 75 151 4.0 11.0 0.00 0.15 0.13 39 1016.9
20210622123920 74 155 4.0 10.0 0.00 0.15 0.13 38 1016.9
20210622123518 74 151 4.0 10.0 0.00 0.15 0.13 37 1016.9
20210622123350 74 151 4.0 10.0 0.00 0.15 0.13 37 1016.9
20210622122820 74 148 4.0 9.0 0.00 0.15 0.13 35 1016.8
20210622122250 74 151 3.0 8.0 0.00 0.15 0.13 33 1016.8
20210622121750 74 155 3.0 8.0 0.00 0.15 0.13 32 1016.8
20210622121342 74 156 3.0 7.0 0.00 0.15 0.13 33 1016.8
20210622121220 74 156 3.0 7.0 0.00 0.15 0.13 33 1016.8
20210622120903 73 154 3.0 7.0 0.00 0.15 0.13 33 1016.7
20210622120720 73 154 3.0 7.0 0.00 0.15 0.13 33 1016.7
20210622120319 73 151 2.0 7.0 0.00 0.15 0.13 33 1016.7
20210622120150 73 151 2.0 7.0 0.00 0.15 0.13 33 1016.7
20210622115749 73 153 2.0 6.0 0.00 0.15 0.13 33 1016.7
20210622115620 73 153 2.0 6.0 0.00 0.15 0.13 33 1016.7
20210622115318 73 156 2.0 6.0 0.00 0.15 0.13 33 1016.8
20210622115050 73 156 2.0 6.0 0.00 0.15 0.13 33 1016.8
20210622114704 73 157 2.0 5.0 0.00 0.15 0.13 33 1016.8
20210622114550 73 157 2.0 5.0 0.00 0.15 0.13 33 1016.8
20210622114247 72 161 0.0 5.0 0.00 0.15 0.13 32 1016.7
20210622114232 72 157 1.0 5.0 0.00 0.15 0.13 33 1016.7
20210622114020 72 157 1.0 5.0 0.00 0.15 0.13 33 1016.7
20210622113623 72 0 0.0 0.0 0.00 0.15 0.13 32 1016.6
20210622113520 72 158 1.0 5.0 0.00 0.15 0.13 33 1016.7
20210622113143 72 161 0.0 5.0 0.00 0.15 0.13 32 1016.7
20210622112950 72 161 0.0 5.0 0.00 0.15 0.13 32 1016.7
20210622112539 72 0 0.0 0.0 0.00 0.15 0.13 32 1016.6
20210622112420 72 0 0.0 0.0 0.00 0.15 0.13 32 1016.6
20210622112037 72 0 0.0 0.0 0.00 0.15 0.13 30 1016.6
20210622111920 72 0 0.0 0.0 0.00 0.15 0.13 30 1016.6
20210622111519 72 0 0.0 0.0 0.00 0.15 0.13 30 1016.6
20210622111350 72 0 0.0 0.0 0.00 0.15 0.13 30 1016.6
20210622110850 72 0 0.0 0.0 0.00 0.15 0.13 30 1016.7
20210622110514 72 0 0.0 0.0 0.00 0.15 0.13 30 1016.6
20210622110350 72 0 0.0 0.0 0.00 0.15 0.13 30 1016.6
20210622105955 72 0 0.0 0.0 0.00 0.15 0.13 30 1016.6
20210622105908 72 0 0.0 0.0 0.00 0.15 0.13 30 1016.4
20210622105820 72 0 0.0 0.0 0.00 0.15 0.13 30 1016.6
20210622105428 72 0 0.0 0.0 0.00 0.15 0.13 30 1016.4
20210622105325 72 0 0.0 0.0 0.00 0.15 0.13 30 1016.5
20210622105320 72 0 0.0 0.0 0.00 0.15 0.13 30 1016.4
20210622104915 72 0 0.0 0.0 0.00 0.15 0.13 30 1016.5
20210622104854 72 0 0.0 0.0 0.00 0.15 0.13 31 1016.5
20210622104750 72 0 0.0 0.0 0.00 0.15 0.13 30 1016.5
20210622104424 72 0 0.0 0.0 0.00 0.15 0.13 31 1016.5
20210622104344 72 0 0.0 0.0 0.00 0.15 0.13 31 1016.3
20210622104250 72 0 0.0 0.0 0.00 0.15 0.13 31 1016.5
20210622103932 72 0 0.0 0.0 0.00 0.15 0.13 31 1016.3
20210622103720 72 0 0.0 0.0 0.00 0.15 0.13 31 1016.3
20210622103347 72 0 0.0 0.0 0.00 0.15 0.13 31 1016.3
20210622103220 72 0 0.0 0.0 0.00 0.15 0.13 31 1016.3
20210622102805 72 0 0.0 0.0 0.00 0.15 0.13 31 1016.2
20210622102650 72 0 0.0 0.0 0.00 0.15 0.13 31 1016.2
20210622102357 72 0 0.0 0.0 0.00 0.15 0.13 32 1016.2
20210622102150 72 0 0.0 0.0 0.00 0.15 0.13 32 1016.2
20210622101727 72 0 0.0 0.0 0.00 0.15 0.13 33 1016.2
20210622101620 72 0 0.0 0.0 0.00 0.15 0.13 33 1016.2
20210622101238 73 0 0.0 0.0 0.00 0.15 0.13 31 1016.3
20210622101120 73 0 0.0 0.0 0.00 0.15 0.13 31 1016.3
20210622100738 73 0 0.0 0.0 0.00 0.15 0.13 29 1016.3
20210622100620 73 0 0.0 0.0 0.00 0.15 0.13 29 1016.3
20210622100535 73 90 0.0 1.0 0.00 0.15 0.13 27 1016.3
20210622100212 73 90 0.0 1.0 0.00 0.15 0.13 27 1016.3
20210622100050 73 90 0.0 1.0 0.00 0.15 0.13 27 1016.3
20210622095520 73 90 0.0 1.0 0.00 0.15 0.13 26 1016.3
20210622095122 73 90 0.0 1.0 0.00 0.15 0.13 25 1016.2
20210622094950 73 90 0.0 1.0 0.00 0.15 0.13 25 1016.2
20210622094645 74 0 0.0 0.0 0.00 0.15 0.13 25 1016.3
20210622094519 74 74 0.0 1.0 0.00 0.15 0.13 25 1016.4
20210622094450 74 0 0.0 0.0 0.00 0.15 0.13 25 1016.3
20210622094103 74 74 0.0 1.0 0.00 0.15 0.13 25 1016.4
20210622093920 74 74 0.0 1.0 0.00 0.15 0.13 25 1016.4
20210622093420 74 72 1.0 3.0 0.00 0.15 0.13 24 1016.4
20210622092850 74 73 1.0 7.0 0.00 0.15 0.13 25 1016.2
20210622092429 74 82 1.0 7.0 0.00 0.15 0.13 25 1016.0
20210622092320 74 82 1.0 7.0 0.00 0.15 0.13 25 1016.0
20210622091820 73 87 2.0 6.0 0.00 0.15 0.13 26 1016.0
20210622091421 73 87 2.0 4.0 0.00 0.15 0.13 26 1016.0
20210622091332 73 88 2.0 4.0 0.00 0.15 0.13 26 1016.2
20210622091320 73 87 2.0 4.0 0.00 0.15 0.13 26 1016.0
20210622090913 73 88 2.0 4.0 0.00 0.15 0.13 26 1016.2
20210622090910 73 88 0.0 3.0 0.00 0.15 0.13 27 1016.3
20210622090750 73 88 2.0 4.0 0.00 0.15 0.13 26 1016.2
20210622090250 73 89 2.0 4.0 0.00 0.15 0.13 27 1016.3
20210622090228 73 88 0.0 3.0 0.00 0.15 0.13 27 1016.3
20210622085851 73 88 0.0 3.0 0.00 0.15 0.13 27 1016.3
20210622085720 73 88 0.0 3.0 0.00 0.15 0.13 27 1016.3
20210622085220 73 0 0.0 0.0 0.00 0.15 0.13 28 1016.3
20210622085151 73 81 0.0 1.0 0.00 0.15 0.13 28 1016.2
20210622084750 73 81 0.0 1.0 0.00 0.15 0.13 28 1016.2
20210622084650 73 81 0.0 1.0 0.00 0.15 0.13 28 1016.2
20210622084241 73 79 1.0 3.0 0.00 0.15 0.13 27 1016.1
20210622084120 73 79 1.0 3.0 0.00 0.15 0.13 27 1016.1
20210622083718 73 76 1.0 4.0 0.00 0.15 0.13 27 1016.2
20210622083550 73 76 1.0 4.0 0.00 0.15 0.13 27 1016.2
20210622083505 73 80 3.0 7.0 0.00 0.15 0.13 27 1016.2
20210622083217 73 80 3.0 7.0 0.00 0.15 0.13 27 1016.2
20210622083020 73 80 3.0 7.0 0.00 0.15 0.13 27 1016.2
20210622082706 73 84 4.0 7.0 0.00 0.15 0.13 26 1016.2
20210622082520 73 84 4.0 7.0 0.00 0.15 0.13 26 1016.2
20210622082248 74 86 4.0 7.0 0.00 0.15 0.13 26 1016.2
20210622082020 74 86 4.0 7.0 0.00 0.15 0.13 26 1016.2
20210622081637 74 85 5.0 7.0 0.00 0.15 0.13 25 1016.3
20210622081450 74 85 5.0 7.0 0.00 0.15 0.13 25 1016.3
20210622081053 74 82 5.0 8.0 0.00 0.15 0.13 24 1016.4
20210622080920 74 81 5.0 8.0 0.00 0.15 0.13 24 1016.3
20210622080557 74 82 5.0 8.0 0.00 0.15 0.13 24 1016.4
20210622080350 74 82 5.0 8.0 0.00 0.15 0.13 24 1016.4
20210622075820 74 86 4.0 7.0 0.00 0.15 0.13 24 1016.4
20210622075805 74 88 3.0 6.0 0.00 0.15 0.13 25 1016.4
20210622075416 74 88 3.0 6.0 0.00 0.15 0.13 25 1016.4
20210622075250 74 88 3.0 6.0 0.00 0.15 0.13 25 1016.4
20210622074720 74 90 2.0 4.0 0.00 0.15 0.13 25 1016.4
20210622074340 73 95 0.0 4.0 0.00 0.15 0.13 25 1016.4
20210622074220 73 95 0.0 4.0 0.00 0.15 0.13 25 1016.4
20210622074153 74 0 0.0 0.0 0.00 0.15 0.13 25 1016.5
20210622073759 74 0 0.0 0.0 0.00 0.15 0.13 25 1016.5
20210622073650 74 0 0.0 0.0 0.00 0.15 0.13 25 1016.5
20210622073300 73 128 0.0 2.0 0.00 0.15 0.13 26 1016.8
20210622073227 74 0 0.0 0.0 0.00 0.15 0.13 25 1016.5
20210622073120 74 0 0.0 0.0 0.00 0.15 0.13 25 1016.5
20210622072717 74 0 0.0 0.0 0.00 0.15 0.13 25 1016.7
20210622072644 73 0 0.0 0.0 0.00 0.15 0.13 25 1016.7
20210622072550 74 0 0.0 0.0 0.00 0.15 0.13 25 1016.7
20210622072206 73 0 0.0 0.0 0.00 0.15 0.13 25 1016.7
20210622072020 73 0 0.0 0.0 0.00 0.15 0.13 25 1016.7
20210622071450 73 0 0.0 0.0 0.00 0.15 0.13 26 1016.7
20210622070950 73 0 0.0 0.0 0.00 0.15 0.13 26 1016.7
20210622070632 73 128 0.0 2.0 0.00 0.15 0.13 26 1016.8
20210622070450 73 128 0.0 2.0 0.00 0.15 0.13 26 1016.8
20210622065920 73 128 0.0 2.0 0.00 0.15 0.13 27 1016.7
20210622065711 73 127 0.0 2.0 0.00 0.15 0.13 27 1016.8
20210622065350 73 127 0.0 2.0 0.00 0.15 0.13 27 1016.8
20210622065006 73 128 1.0 3.0 0.00 0.15 0.13 27 1016.9
20210622064850 73 128 1.0 3.0 0.00 0.15 0.13 27 1016.9
20210622064320 73 128 1.0 3.0 0.00 0.15 0.13 28 1016.9
20210622064028 73 128 0.0 3.0 0.00 0.15 0.13 28 1017.0
20210622064021 73 128 0.0 3.0 0.00 0.15 0.13 29 1017.2
20210622063820 73 128 0.0 3.0 0.00 0.15 0.13 28 1017.0
20210622063400 73 128 0.0 3.0 0.00 0.15 0.13 29 1017.2
20210622063250 73 128 0.0 3.0 0.00 0.15 0.13 29 1017.2
20210622063228 73 128 0.0 3.0 0.00 0.15 0.13 29 1017.2
20210622062914 73 128 0.0 3.0 0.00 0.15 0.13 29 1017.2
20210622062750 73 128 0.0 3.0 0.00 0.15 0.13 29 1017.2
20210622062250 73 127 0.0 3.0 0.00 0.15 0.13 30 1017.2
20210622062102 72 0 0.0 0.0 0.00 0.15 0.13 33 1017.3
20210622061909 73 0 0.0 0.0 0.00 0.15 0.13 31 1017.3
20210622061720 73 0 0.0 0.0 0.00 0.15 0.13 31 1017.3
20210622061316 72 0 0.0 0.0 0.00 0.15 0.13 33 1017.3
20210622061150 72 0 0.0 0.0 0.00 0.15 0.13 33 1017.3
20210622060906 72 127 0.0 1.0 0.00 0.15 0.13 35 1017.6
20210622060749 72 0 0.0 0.0 0.00 0.15 0.13 34 1017.4
20210622060620 72 0 0.0 0.0 0.00 0.15 0.13 34 1017.4
20210622060216 72 127 0.0 1.0 0.00 0.15 0.13 35 1017.6
20210622060050 72 127 0.0 1.0 0.00 0.15 0.13 35 1017.6
20210622055632 72 0 0.0 0.0 0.00 0.15 0.13 36 1017.7
20210622055520 72 127 0.0 1.0 0.00 0.15 0.13 36 1017.6
20210622055208 72 0 0.0 0.0 0.00 0.15 0.13 36 1017.7
20210622055020 72 0 0.0 0.0 0.00 0.15 0.13 36 1017.7
20210622054748 72 0 0.0 0.0 0.00 0.15 0.13 37 1018.0
20210622054700 72 0 0.0 0.0 0.00 0.15 0.13 37 1017.8
20210622054450 72 0 0.0 0.0 0.00 0.15 0.13 37 1017.8
20210622054306 72 0 0.0 0.0 0.00 0.15 0.13 36 1018.2
20210622054112 72 0 0.0 0.0 0.00 0.15 0.13 37 1018.0
20210622053920 72 0 0.0 0.0 0.00 0.15 0.13 37 1018.0
20210622053455 72 0 0.0 0.0 0.00 0.15 0.13 36 1018.2
20210622053350 72 0 0.0 0.0 0.00 0.15 0.13 36 1018.2
20210622052929 72 128 0.0 1.0 0.00 0.15 0.13 35 1018.1
20210622052820 72 128 0.0 1.0 0.00 0.15 0.13 35 1018.1
20210622052423 73 121 1.0 3.0 0.00 0.15 0.13 32 1018.0
20210622052320 73 128 0.0 2.0 0.00 0.15 0.13 33 1018.2
20210622051952 73 128 0.0 2.0 0.00 0.15 0.13 32 1018.2
20210622051820 73 128 0.0 2.0 0.00 0.15 0.13 32 1018.2
20210622051429 73 121 1.0 3.0 0.00 0.15 0.13 32 1018.0
20210622051250 73 121 1.0 3.0 0.00 0.15 0.13 32 1018.0
20210622050847 73 135 1.0 4.0 0.00 0.15 0.13 32 1018.1
20210622050720 73 135 1.0 4.0 0.00 0.15 0.13 32 1018.1
20210622050336 73 131 1.0 4.0 0.00 0.15 0.13 31 1018.2
20210622050220 73 131 1.0 4.0 0.00 0.15 0.13 31 1018.2
20210622045650 73 97 1.0 4.0 0.00 0.15 0.13 30 1018.4
20210622045257 73 73 1.0 3.0 0.00 0.15 0.13 30 1018.5
20210622045120 73 73 1.0 3.0 0.00 0.15 0.13 30 1018.5
20210622044714 73 76 1.0 5.0 0.00 0.15 0.13 30 1018.7
20210622044550 73 76 1.0 5.0 0.00 0.15 0.13 30 1018.7
20210622044230 73 84 1.0 3.0 0.00 0.15 0.13 31 1018.7
20210622044050 73 84 1.0 3.0 0.00 0.15 0.13 31 1018.7
20210622043749 73 84 0.0 3.0 0.00 0.15 0.13 31 1018.6
20210622043550 73 84 0.0 3.0 0.00 0.15 0.13 31 1018.6
20210622043020 73 0 0.0 0.0 0.00 0.15 0.13 31 1018.6
20210622042639 73 0 0.0 0.0 0.00 0.15 0.13 31 1018.5
20210622042450 73 0 0.0 0.0 0.00 0.15 0.13 31 1018.5
20210622042128 73 0 0.0 0.0 0.00 0.15 0.13 31 1018.4
20210622041920 73 0 0.0 0.0 0.00 0.15 0.13 31 1018.4
20210622041420 73 0 0.0 0.0 0.00 0.15 0.13 32 1018.4
20210622040920 73 0 0.0 0.0 0.00 0.15 0.13 32 1018.4
20210622040350 73 0 0.0 0.0 0.00 0.15 0.13 33 1018.5
20210622040346 73 0 0.0 0.0 0.00 0.15 0.13 34 1018.6
20210622035922 73 0 0.0 0.0 0.00 0.15 0.13 33 1018.6
20210622035820 73 0 0.0 0.0 0.00 0.15 0.13 33 1018.6
20210622035501 73 0 0.0 0.0 0.00 0.15 0.13 34 1018.6
20210622035250 73 0 0.0 0.0 0.00 0.15 0.13 34 1018.6
20210622034850 73 0 0.0 0.0 0.00 0.15 0.13 34 1018.6
20210622034720 73 0 0.0 0.0 0.00 0.15 0.13 34 1018.6
20210622034413 73 86 2.0 4.0 0.00 0.15 0.13 36 1018.6
20210622034151 73 90 1.0 3.0 0.00 0.15 0.13 35 1018.5
20210622033749 73 86 2.0 4.0 0.00 0.15 0.13 36 1018.6
20210622033621 73 86 2.0 4.0 0.00 0.15 0.13 36 1018.6
20210622033050 73 86 4.0 8.0 0.00 0.15 0.13 36 1018.6
20210622032520 72 84 4.0 8.0 0.00 0.15 0.13 37 1018.5
20210622032021 72 83 2.0 8.0 0.00 0.15 0.13 37 1018.5
20210622031749 72 73 0.0 3.0 0.00 0.15 0.13 39 1018.6
20210622031450 72 73 0.0 3.0 0.00 0.15 0.13 39 1018.6
20210622030921 72 72 0.0 3.0 0.00 0.15 0.13 39 1018.7
20210622030420 72 72 1.0 3.0 0.00 0.15 0.13 39 1018.4
20210622025850 72 72 1.0 3.0 0.00 0.15 0.13 40 1018.3
20210622025617 72 73 2.0 4.0 0.00 0.15 0.13 40 1018.4
20210622025320 72 73 2.0 4.0 0.00 0.15 0.13 40 1018.4
20210622025151 72 75 2.0 4.0 0.00 0.15 0.13 41 1018.3
20210622024820 72 75 2.0 4.0 0.00 0.15 0.13 41 1018.3
20210622024250 72 75 2.0 3.0 0.00 0.15 0.13 44 1018.5
20210622024026 72 74 2.0 3.0 0.00 0.15 0.13 44 1018.5
20210622023750 72 74 2.0 3.0 0.00 0.15 0.13 44 1018.5
20210622023250 72 73 2.0 4.0 0.00 0.15 0.13 44 1018.5
20210622022847 72 73 3.0 5.0 0.00 0.15 0.13 44 1018.4
20210622022720 72 73 3.0 5.0 0.00 0.15 0.13 44 1018.4
20210622022430 73 64 2.0 5.0 0.00 0.15 0.13 44 1018.6
20210622022223 73 70 2.0 4.0 0.00 0.15 0.13 44 1018.7
20210622022221 72 69 3.0 5.0 0.00 0.15 0.13 43 1018.4
20210622021854 73 64 2.0 5.0 0.00 0.15 0.13 44 1018.6
20210622021650 73 64 2.0 5.0 0.00 0.15 0.13 44 1018.6
20210622021247 73 70 2.0 4.0 0.00 0.15 0.13 44 1018.7
20210622021121 73 70 2.0 4.0 0.00 0.15 0.13 44 1018.7
20210622021041 73 73 3.0 9.0 0.00 0.15 0.13 44 1018.6
20210622020620 73 73 3.0 9.0 0.00 0.15 0.13 44 1018.6
20210622020419 73 73 5.0 9.0 0.00 0.15 0.13 46 1018.4
20210622020344 73 73 5.0 9.0 0.00 0.15 0.13 46 1018.4
20210622020120 73 73 5.0 9.0 0.00 0.15 0.13 46 1018.4
20210622015628 73 76 6.0 10.0 0.05 0.15 0.13 49 1018.3
20210622015620 73 74 5.0 9.0 0.03 0.15 0.13 48 1018.3
20210622015120 73 76 6.0 10.0 0.05 0.15 0.13 49 1018.3
20210622014844 73 77 5.0 10.0 0.07 0.15 0.13 51 1018.2
20210622014550 73 77 5.0 10.0 0.07 0.15 0.13 51 1018.2
20210622014314 73 73 3.0 8.0 0.11 0.15 0.13 54 1018.3
20210622014020 73 73 3.0 8.0 0.11 0.15 0.13 54 1018.3
20210622013843 73 77 3.0 5.0 0.12 0.15 0.13 57 1018.2
20210622013520 73 77 3.0 5.0 0.12 0.15 0.13 57 1018.2
20210622013331 73 82 3.0 8.0 0.12 0.15 0.13 61 1018.0
20210622012950 73 82 3.0 8.0 0.12 0.15 0.13 61 1018.0
20210622012922 74 89 2.0 8.0 0.12 0.15 0.13 64 1018.0
20210622012451 74 89 2.0 8.0 0.12 0.15 0.13 64 1018.0
20210622012442 74 138 1.0 5.0 0.12 0.15 0.13 65 1018.2
20210622011920 74 138 1.0 5.0 0.12 0.15 0.13 65 1018.2
20210622011846 75 142 4.0 10.0 0.10 0.12 0.10 76 1018.2
20210622011430 74 144 3.0 7.0 0.11 0.15 0.11 71 1018.3
20210622011350 74 147 2.0 7.0 0.11 0.15 0.11 69 1018.2
20210622011107 75 112 3.0 12.0 0.11 0.15 0.11 74 1018.3
20210622010824 75 142 4.0 10.0 0.10 0.12 0.10 76 1018.2
20210622010820 74 144 3.0 7.0 0.11 0.15 0.11 71 1018.3
20210622010731 75 142 4.0 10.0 0.10 0.12 0.10 76 1018.2
20210622010250 75 112 3.0 12.0 0.11 0.15 0.11 74 1018.3
20210622005722 76 155 4.0 10.0 0.07 0.10 0.07 77 1018.5
20210622005720 75 142 4.0 10.0 0.10 0.12 0.10 76 1018.2
20210622005641 76 155 4.0 10.0 0.07 0.10 0.07 77 1018.5
20210622005150 76 155 4.0 10.0 0.07 0.10 0.07 77 1018.5
20210622004650 76 129 3.0 12.0 0.05 0.09 0.06 77 1018.4
20210622004524 77 124 3.0 12.0 0.00 0.03 0.01 77 1018.3
20210622004120 77 124 3.0 12.0 0.00 0.03 0.01 77 1018.3
20210622003621 77 137 4.0 14.0 0.00 0.02 0.00 77 1018.4
20210622003238 77 109 5.0 17.0 0.00 0.02 0.00 77 1018.1
20210622003050 77 109 5.0 17.0 0.00 0.02 0.00 77 1018.1
20210622003041 77 82 5.0 14.0 0.00 0.02 0.00 77 1017.9
20210622002714 77 90 6.0 14.0 0.00 0.02 0.00 77 1018.0
20210622002520 77 90 6.0 14.0 0.00 0.02 0.00 77 1018.0
20210622002443 77 81 5.0 12.0 0.00 0.02 0.00 76 1017.7
20210622002215 77 82 5.0 14.0 0.00 0.02 0.00 77 1017.9
20210622001950 77 82 5.0 14.0 0.00 0.02 0.00 77 1017.9
20210622001711 77 80 6.0 12.0 0.00 0.02 0.00 75 1017.8
20210622001637 77 81 5.0 12.0 0.00 0.02 0.00 76 1017.7
20210622001450 77 81 5.0 12.0 0.00 0.02 0.00 76 1017.7
20210622001147 77 80 6.0 12.0 0.00 0.02 0.00 75 1017.8
20210622001109 77 80 6.0 12.0 0.00 0.02 0.00 75 1017.8
20210622000920 77 80 6.0 12.0 0.00 0.02 0.00 75 1017.8
20210622000648 77 80 5.0 10.0 0.00 0.02 0.00 76 1017.8
20210622000421 77 80 5.0 10.0 0.00 0.02 0.00 76 1017.8
20210622000131 77 81 0.0 8.0 0.00 0.02 0.02 77 1017.4
20210621235850 77 84 3.0 8.0 0.00 0.02 0.02 77 1017.5
20210621235559 77 81 0.0 8.0 0.00 0.02 0.02 77 1017.4
20210621235350 77 81 0.0 8.0 0.00 0.02 0.02 77 1017.4
20210621235108 77 0 0.0 0.0 0.00 0.02 0.02 77 1016.7
20210621234820 77 0 0.0 0.0 0.00 0.02 0.02 77 1016.7
20210621234250 77 0 0.0 0.0 0.00 0.02 0.02 76 1016.5
20210621233720 77 0 0.0 0.0 0.00 0.02 0.02 76 1016.6
20210621233150 77 73 0.0 1.0 0.00 0.02 0.02 76 1016.4
20210621232800 77 72 1.0 4.0 0.00 0.02 0.02 76 1016.1
20210621232620 77 72 1.0 4.0 0.00 0.02 0.02 76 1016.1
20210621232525 77 72 1.0 4.0 0.00 0.02 0.02 76 1015.9
20210621232120 77 72 1.0 4.0 0.00 0.02 0.02 76 1015.9
20210621231917 77 0 0.0 0.0 0.00 0.02 0.02 76 1015.8
20210621231855 77 0 0.0 0.0 0.00 0.02 0.02 76 1015.8
20210621231550 77 0 0.0 0.0 0.00 0.02 0.02 76 1015.8
20210621231257 77 0 0.0 0.0 0.00 0.02 0.02 76 1015.8
20210621231020 77 0 0.0 0.0 0.00 0.02 0.02 76 1015.8
20210621230450 76 0 0.0 0.0 0.00 0.02 0.02 77 1015.7
20210621230142 76 0 0.0 0.0 0.00 0.02 0.02 77 1015.9
20210621225920 76 0 0.0 0.0 0.00 0.02 0.02 77 1015.9
20210621225438 76 0 0.0 0.0 0.00 0.02 0.02 76 1016.0
20210621225350 76 0 0.0 0.0 0.00 0.02 0.02 76 1016.0
20210621224820 77 0 0.0 0.0 0.00 0.02 0.02 76 1015.9
20210621224734 77 0 0.0 0.0 0.00 0.02 0.02 76 1015.8
20210621224320 77 0 0.0 0.0 0.00 0.02 0.02 76 1015.8
20210621224120 77 71 0.0 1.0 0.00 0.02 0.02 75 1015.7
20210621223820 77 71 0.0 1.0 0.00 0.02 0.02 75 1015.7
20210621223250 77 71 0.0 1.0 0.00 0.02 0.02 76 1015.7
20210621222720 77 71 0.0 1.0 0.01 0.02 0.02 75 1015.6
20210621222417 77 71 0.0 1.0 0.01 0.02 0.02 74 1015.6
20210621222150 77 71 0.0 1.0 0.01 0.02 0.02 74 1015.6
20210621221904 76 0 0.0 0.0 0.01 0.02 0.02 73 1015.5
20210621221620 76 0 0.0 0.0 0.01 0.02 0.02 73 1015.5
20210621221050 76 0 0.0 0.0 0.01 0.02 0.02 74 1015.6
20210621220550 76 0 0.0 0.0 0.01 0.02 0.02 72 1015.5
20210621220336 76 0 0.0 0.0 0.02 0.02 0.02 73 1015.8
20210621220021 76 0 0.0 0.0 0.02 0.02 0.02 73 1015.8
20210621215748 76 0 0.0 0.0 0.01 0.01 0.02 74 1015.9
20210621215451 76 0 0.0 0.0 0.01 0.01 0.02 74 1015.9
20210621214950 76 0 0.0 0.0 0.01 0.01 0.02 75 1016.0
20210621214710 76 74 0.0 2.0 0.01 0.01 0.02 76 1016.1
20210621214420 76 74 0.0 2.0 0.01 0.01 0.02 76 1016.1
20210621214201 76 74 1.0 4.0 0.01 0.01 0.02 76 1016.2
20210621213850 76 74 1.0 4.0 0.01 0.01 0.02 76 1016.2
20210621213518 76 73 5.0 13.0 0.01 0.01 0.02 77 1016.4
20210621213350 76 73 5.0 13.0 0.01 0.01 0.02 77 1016.4
20210621213029 76 74 8.0 13.0 0.00 0.00 0.01 78 1016.5
20210621212821 76 74 8.0 13.0 0.00 0.00 0.01 78 1016.5
20210621212251 76 78 7.0 13.0 0.00 0.00 0.01 78 1016.7
20210621211751 76 81 10.0 18.0 0.00 0.00 0.01 78 1016.8
20210621211420 76 81 8.0 18.0 0.00 0.00 0.01 78 1016.9
20210621211220 76 81 8.0 18.0 0.00 0.00 0.01 78 1016.9
20210621211028 76 4 2.0 12.0 0.00 0.00 0.01 78 1016.8
20210621210651 76 4 2.0 12.0 0.00 0.00 0.01 78 1016.8
20210621210305 76 295 3.0 7.0 0.00 0.00 0.00 77 1016.4
20210621210120 76 295 3.0 7.0 0.00 0.00 0.00 77 1016.4
20210621205908 78 273 5.0 18.0 0.00 0.00 0.00 74 1016.3
20210621205551 78 273 5.0 18.0 0.00 0.00 0.00 74 1016.3
20210621205021 80 262 7.0 21.0 0.00 0.00 0.00 70 1015.9
20210621204451 82 258 7.0 20.0 0.00 0.00 0.00 68 1016.2
20210621204248 84 247 6.0 16.0 0.00 0.00 0.00 66 1016.1
20210621203951 84 247 6.0 16.0 0.00 0.00 0.00 66 1016.1
20210621203939 86 236 8.0 19.0 0.00 0.00 0.00 66 1015.7
20210621203451 86 236 8.0 19.0 0.00 0.00 0.00 66 1015.7
20210621203144 89 230 7.0 19.0 0.00 0.00 0.00 63 1015.5
20210621202921 89 230 7.0 19.0 0.00 0.00 0.00 63 1015.5
20210621202652 91 230 4.0 9.0 0.00 0.00 0.00 65 1015.4
20210621202351 91 230 4.0 9.0 0.00 0.00 0.00 65 1015.4
20210621201851 91 231 3.0 9.0 0.00 0.00 0.00 65 1015.4
20210621201321 91 224 3.0 10.0 0.00 0.00 0.00 64 1015.5
20210621200751 92 224 3.0 10.0 0.00 0.00 0.00 63 1015.6
20210621200347 92 216 3.0 8.0 0.00 0.00 0.00 62 1015.5
20210621200221 92 216 3.0 8.0 0.00 0.00 0.00 62 1015.5
20210621195651 92 187 3.0 10.0 0.00 0.00 0.00 65 1015.5
20210621195121 92 198 3.0 10.0 0.00 0.00 0.00 63 1015.6
20210621194931 92 218 2.0 5.0 0.00 0.00 0.00 65 1015.7
20210621194847 92 218 2.0 5.0 0.00 0.00 0.00 65 1015.7
20210621194621 92 218 2.0 5.0 0.00 0.00 0.00 65 1015.7
20210621194051 92 221 3.0 7.0 0.00 0.00 0.00 64 1015.8
20210621193930 91 224 3.0 7.0 0.00 0.00 0.00 64 1015.9
20210621193521 91 224 3.0 7.0 0.00 0.00 0.00 64 1015.9
20210621192951 91 232 3.0 7.0 0.00 0.00 0.00 64 1016.1
20210621192421 91 231 2.0 6.0 0.00 0.00 0.00 65 1016.1
20210621192111 90 221 3.0 7.0 0.00 0.00 0.00 65 1016.2
20210621191851 90 221 3.0 7.0 0.00 0.00 0.00 65 1016.2
20210621191518 90 221 3.0 7.0 0.00 0.00 0.00 66 1016.2
20210621191351 90 221 3.0 7.0 0.00 0.00 0.00 66 1016.2
20210621190821 90 223 4.0 8.0 0.00 0.00 0.00 66 1016.2
20210621190432 90 204 3.0 8.0 0.00 0.00 0.00 66 1016.3
20210621190251 90 204 3.0 8.0 0.00 0.00 0.00 66 1016.3
20210621185721 90 195 3.0 9.0 0.00 0.00 0.00 66 1016.5
20210621185419 90 202 3.0 9.0 0.00 0.00 0.00 66 1016.6
20210621185221 90 202 3.0 9.0 0.00 0.00 0.00 66 1016.6
20210621184651 90 194 3.0 9.0 0.00 0.00 0.00 66 1016.6
20210621184335 90 211 4.0 9.0 0.00 0.00 0.00 66 1016.7
20210621184121 90 211 4.0 9.0 0.00 0.00 0.00 66 1016.7
20210621183945 90 211 4.0 8.0 0.00 0.00 0.00 66 1016.6
20210621183551 90 211 4.0 8.0 0.00 0.00 0.00 66 1016.6
20210621183156 90 210 3.0 11.0 0.00 0.00 0.00 66 1016.8
20210621183021 90 210 3.0 11.0 0.00 0.00 0.00 66 1016.8
20210621182752 90 220 4.0 9.0 0.00 0.00 0.00 65 1016.8
20210621182451 90 220 4.0 9.0 0.00 0.00 0.00 65 1016.8
20210621181951 90 216 3.0 11.0 0.00 0.00 0.00 66 1016.8
20210621181734 91 207 3.0 11.0 0.00 0.00 0.00 66 1016.8
20210621181421 91 207 3.0 11.0 0.00 0.00 0.00 66 1016.8
20210621181045 91 212 3.0 9.0 0.00 0.00 0.00 66 1017.0
20210621180921 91 212 3.0 9.0 0.00 0.00 0.00 66 1017.0
20210621180351 91 218 4.0 9.0 0.00 0.00 0.00 66 1017.1
20210621180103 91 220 3.0 9.0 0.00 0.00 0.00 68 1017.1
20210621175821 91 220 3.0 9.0 0.00 0.00 0.00 68 1017.1
20210621175706 91 221 3.0 7.0 0.00 0.00 0.00 67 1017.2
20210621175321 91 221 3.0 7.0 0.00 0.00 0.00 67 1017.2
20210621174751 91 205 4.0 11.0 0.00 0.00 0.00 66 1017.3
20210621174251 91 194 4.0 11.0 0.00 0.00 0.00 66 1017.3
20210621173751 91 205 3.0 7.0 0.00 0.00 0.00 67 1017.4
20210621173407 90 216 3.0 7.0 0.00 0.00 0.00 68 1017.5
20210621173221 90 216 3.0 7.0 0.00 0.00 0.00 68 1017.5
20210621172855 90 222 4.0 9.0 0.00 0.00 0.00 70 1017.6
20210621172651 90 222 4.0 9.0 0.00 0.00 0.00 70 1017.6
20210621172151 89 224 4.0 11.0 0.00 0.00 0.00 71 1017.7
20210621171918 89 218 3.0 11.0 0.00 0.00 0.00 72 1017.8
20210621171621 89 218 3.0 11.0 0.00 0.00 0.00 72 1017.8
20210621171333 89 215 2.0 9.0 0.00 0.00 0.00 71 1017.9
20210621171121 89 215 2.0 9.0 0.00 0.00 0.00 71 1017.9
20210621170845 89 227 2.0 5.0 0.00 0.00 0.00 72 1017.9
20210621170551 89 227 2.0 5.0 0.00 0.00 0.00 72 1017.9
20210621170221 89 225 3.0 9.0 0.00 0.00 0.00 72 1018.0
20210621170021 89 225 3.0 9.0 0.00 0.00 0.00 72 1018.0
20210621165801 89 225 4.0 9.0 0.00 0.00 0.00 70 1018.1
20210621165521 89 225 4.0 9.0 0.00 0.00 0.00 70 1018.1
20210621165248 89 222 3.0 8.0 0.00 0.00 0.00 70 1018.2
20210621164951 89 222 3.0 8.0 0.00 0.00 0.00 70 1018.2
20210621164629 89 221 2.0 6.0 0.00 0.00 0.00 70 1018.2
20210621164451 89 221 2.0 6.0 0.00 0.00 0.00 70 1018.2
20210621164249 89 226 2.0 5.0 0.00 0.00 0.00 72 1018.2
20210621163921 89 226 2.0 5.0 0.00 0.00 0.00 72 1018.2
20210621163615 88 224 3.0 6.0 0.00 0.00 0.00 72 1018.3
20210621163421 88 224 3.0 6.0 0.00 0.00 0.00 72 1018.3
20210621163034 88 229 3.0 6.0 0.00 0.00 0.00 71 1018.2
20210621162921 88 229 3.0 6.0 0.00 0.00 0.00 71 1018.2
20210621162706 88 219 2.0 5.0 0.00 0.00 0.00 71 1018.3
20210621162421 88 219 2.0 5.0 0.00 0.00 0.00 71 1018.3
20210621162156 88 209 2.0 5.0 0.00 0.00 0.00 71 1018.4
20210621161851 88 209 2.0 5.0 0.00 0.00 0.00 71 1018.4
20210621161435 88 216 3.0 8.0 0.00 0.00 0.00 72 1018.5
20210621161321 88 216 3.0 8.0 0.00 0.00 0.00 72 1018.5
20210621160938 88 201 3.0 8.0 0.00 0.00 0.00 73 1018.7
20210621160821 88 201 3.0 8.0 0.00 0.00 0.00 73 1018.7
20210621160507 87 173 3.0 9.0 0.00 0.00 0.00 75 1018.7
20210621160251 87 173 3.0 9.0 0.00 0.00 0.00 75 1018.7
20210621155839 87 197 3.0 9.0 0.00 0.00 0.00 73 1018.8
20210621155721 87 197 3.0 9.0 0.00 0.00 0.00 73 1018.8
20210621155359 86 203 3.0 11.0 0.00 0.00 0.00 74 1018.9
20210621155221 86 203 3.0 11.0 0.00 0.00 0.00 74 1018.9
20210621154651 86 214 4.0 11.0 0.00 0.00 0.00 74 1018.9
20210621154346 86 194 4.0 10.0 0.00 0.00 0.00 75 1019.1
20210621154151 86 194 4.0 10.0 0.00 0.00 0.00 75 1019.1
20210621153621 86 176 3.0 10.0 0.00 0.00 0.00 75 1019.1
20210621153132 86 216 3.0 6.0 0.00 0.00 0.00 76 1019.1
20210621153051 86 216 3.0 6.0 0.00 0.00 0.00 76 1019.1
20210621152858 85 209 3.0 6.0 0.00 0.00 0.00 76 1019.1
20210621152551 85 209 3.0 6.0 0.00 0.00 0.00 76 1019.1
20210621152051 85 195 2.0 6.0 0.00 0.00 0.00 76 1019.1
20210621151551 85 168 2.0 6.0 0.00 0.00 0.00 76 1019.2
20210621151021 85 152 2.0 6.0 0.00 0.00 0.00 76 1019.2
20210621150703 84 152 2.0 6.0 0.00 0.00 0.00 76 1019.1
20210621150451 84 152 2.0 6.0 0.00 0.00 0.00 76 1019.1
20210621145921 84 162 2.0 5.0 0.00 0.00 0.00 76 1019.2
20210621145351 84 163 1.0 5.0 0.00 0.00 0.00 76 1019.2
20210621144821 84 181 1.0 5.0 0.00 0.00 0.00 77 1019.2
20210621144520 83 216 1.0 5.0 0.00 0.00 0.00 77 1019.2
20210621144447 83 216 1.0 5.0 0.00 0.00 0.00 77 1019.2
20210621144251 83 216 1.0 5.0 0.00 0.00 0.00 77 1019.2
20210621143721 83 212 2.0 4.0 0.00 0.00 0.00 77 1019.2
20210621143409 83 172 2.0 6.0 0.00 0.00 0.00 77 1019.1
20210621143221 83 172 2.0 6.0 0.00 0.00 0.00 77 1019.1
20210621142843 83 163 2.0 6.0 0.00 0.00 0.00 77 1019.0
20210621142651 83 163 2.0 6.0 0.00 0.00 0.00 77 1019.0
20210621142151 83 170 1.0 6.0 0.00 0.00 0.00 77 1018.8